createdAt,value
2023-04-20T00:02:50.776Z,100122.84
2023-04-20T00:05:55.135Z,100113.56
2023-04-20T00:09:03.551Z,100116.91
2023-04-20T00:12:09.672Z,100109.75
2023-04-20T00:15:12.610Z,100120.53
2023-04-20T00:18:18.276Z,100115.53
2023-04-20T00:21:24.688Z,100105.84
2023-04-20T00:24:27.642Z,100108.25
2023-04-20T00:27:33.544Z,100111.06
2023-04-20T00:30:37.392Z,100109.28
2023-04-20T00:33:40.456Z,100112.84
2023-04-20T00:36:46.052Z,100103.38
2023-04-20T00:39:53.683Z,100110.09
2023-04-20T00:42:58.838Z,100110.09
2023-04-20T00:46:05.153Z,100102.50
2023-04-20T00:49:08.704Z,100111.78
2023-04-20T00:52:12.445Z,100106.69
2023-04-20T00:55:20.211Z,100095.88
2023-04-20T00:58:24.439Z,100096.09
2023-04-20T01:01:30.040Z,100097.81
2023-04-20T01:04:37.239Z,100102.84
2023-04-20T01:07:40.496Z,100098.88
2023-04-20T01:10:44.186Z,100097.22
2023-04-20T01:13:48.025Z,100087.84
2023-04-20T01:16:58.578Z,100087.22
2023-04-20T01:20:02.680Z,100097.00
2023-04-20T01:23:06.283Z,100086.91
2023-04-20T01:26:12.374Z,100091.09
2023-04-20T01:29:17.589Z,100092.53
2023-04-20T01:32:22.028Z,100086.78
2023-04-20T01:35:27.670Z,100087.97
2023-04-20T01:38:37.434Z,100090.94
2023-04-20T01:41:44.351Z,100088.56
2023-04-20T01:44:47.513Z,100097.31
2023-04-20T01:47:51.004Z,100098.44
2023-04-20T01:50:58.205Z,100100.94
2023-04-20T01:54:01.399Z,100087.31
2023-04-20T01:57:04.451Z,100096.97
2023-04-20T02:00:09.332Z,100096.44
2023-04-20T02:03:14.387Z,100091.22
2023-04-20T02:06:18.446Z,100088.91
2023-04-20T02:09:22.673Z,100095.69
2023-04-20T02:12:27.918Z,100092.66
2023-04-20T02:15:33.313Z,100099.47
2023-04-20T02:18:38.320Z,100101.47
2023-04-20T02:21:42.440Z,100095.91
2023-04-20T02:24:46.756Z,100103.19
2023-04-20T02:27:50.080Z,100102.97
2023-04-20T02:30:53.891Z,100096.41
2023-04-20T02:33:59.950Z,100095.88
2023-04-20T02:37:05.605Z,100093.47
2023-04-20T02:40:09.008Z,100095.44
2023-04-20T02:43:12.616Z,100092.44
2023-04-20T02:46:19.240Z,100098.25
2023-04-20T02:49:22.396Z,100101.19
2023-04-20T02:52:25.385Z,100100.31
2023-04-20T02:55:29.305Z,100104.63
2023-04-20T02:58:34.212Z,100113.50
2023-04-20T03:01:36.597Z,100107.69
2023-04-20T03:04:40.357Z,100110.84
2023-04-20T03:07:43.552Z,100108.44
2023-04-20T03:10:46.942Z,100113.00
2023-04-20T03:13:52.544Z,100116.00
2023-04-20T03:16:57.891Z,100109.69
2023-04-20T03:20:01.495Z,100114.34
2023-04-20T03:23:05.415Z,100114.63
2023-04-20T03:26:09.223Z,100111.28
2023-04-20T03:29:15.281Z,100106.81
2023-04-20T03:32:19.305Z,100108.59
2023-04-20T03:35:23.805Z,100111.28
2023-04-20T03:38:26.380Z,100116.66
2023-04-20T03:41:31.132Z,100109.03
2023-04-20T03:44:34.334Z,100106.72
2023-04-20T03:47:37.723Z,100112.47
2023-04-20T03:50:41.042Z,100110.84
2023-04-20T03:53:47.199Z,100117.34
2023-04-20T03:56:50.811Z,100121.38
2023-04-20T03:59:53.808Z,100123.81
2023-04-20T04:02:58.839Z,100122.19
2023-04-20T04:06:03.468Z,100129.81
2023-04-20T04:09:08.190Z,100126.41
2023-04-20T04:12:13.437Z,100124.59
2023-04-20T04:15:16.946Z,100126.66
2023-04-20T04:18:21.100Z,100127.12
2023-04-20T04:21:25.181Z,100131.41
2023-04-20T04:24:33.212Z,100135.75
2023-04-20T04:27:36.020Z,100140.75
2023-04-20T04:30:39.389Z,100139.44
2023-04-20T04:33:47.077Z,100136.50
2023-04-20T04:36:49.927Z,100134.88
2023-04-20T04:39:53.472Z,100138.97
2023-04-20T04:42:56.916Z,100134.38
2023-04-20T04:46:07.736Z,100138.91
2023-04-20T04:49:12.688Z,100138.91
2023-04-20T04:52:18.442Z,100139.97
2023-04-20T04:55:22.026Z,100140.69
2023-04-20T04:58:27.513Z,100144.16
2023-04-20T05:01:34.957Z,100147.22
2023-04-20T05:04:38.475Z,100143.50
2023-04-20T05:07:44.762Z,100148.47
2023-04-20T05:10:48.361Z,100162.87
2023-04-20T05:13:55.348Z,100164.06
2023-04-20T05:17:03.058Z,100170.62
2023-04-20T05:20:07.992Z,100173.44
2023-04-20T05:23:11.391Z,100177.16
2023-04-20T05:26:15.935Z,100184.78
2023-04-20T05:29:19.470Z,100189.16
2023-04-20T05:32:23.152Z,100190.44
2023-04-20T05:35:29.801Z,100188.34
2023-04-20T05:38:35.164Z,100182.22
2023-04-20T05:41:37.946Z,100184.53
2023-04-20T05:44:41.688Z,100183.34
2023-04-20T05:47:54.769Z,100181.09
2023-04-20T05:50:59.090Z,100191.56
2023-04-20T05:54:03.926Z,100196.09
2023-04-20T05:57:07.022Z,100199.03
2023-04-20T06:00:13.865Z,100200.03
2023-04-20T06:03:17.598Z,100206.69
2023-04-20T06:06:20.492Z,100211.19
2023-04-20T06:09:23.296Z,100215.28
2023-04-20T06:12:26.795Z,100212.09
2023-04-20T06:15:30.982Z,100208.69
2023-04-20T06:18:35.008Z,100214.91
2023-04-20T06:21:38.841Z,100208.62
2023-04-20T06:24:43.559Z,100219.91
2023-04-20T06:27:49.230Z,100211.75
2023-04-20T06:30:53.572Z,100215.38
2023-04-20T06:33:57.676Z,100218.75
2023-04-20T06:37:01.143Z,100211.19
2023-04-20T06:40:12.114Z,100224.84
2023-04-20T06:43:19.855Z,100221.56
2023-04-20T06:46:23.508Z,100217.94
2023-04-20T06:49:26.660Z,100220.06
2023-04-20T06:52:31.102Z,100212.44
2023-04-20T06:55:34.503Z,100222.44
2023-04-20T06:58:40.000Z,100221.38
2023-04-20T07:01:45.437Z,100223.91
2023-04-20T07:04:48.879Z,100226.72
2023-04-20T07:07:51.864Z,100228.94
2023-04-20T07:10:55.877Z,100236.28
2023-04-20T07:13:58.565Z,100232.09
2023-04-20T07:17:01.146Z,100246.31
2023-04-20T07:20:09.116Z,100245.69
2023-04-20T07:23:12.634Z,100231.28
2023-04-20T07:26:15.560Z,100240.44
2023-04-20T07:29:19.223Z,100238.03
2023-04-20T07:32:22.654Z,100237.28
2023-04-20T07:35:25.642Z,100246.56
2023-04-20T07:38:28.768Z,100252.81
2023-04-20T07:41:31.950Z,100247.69
2023-04-20T07:44:36.361Z,100249.63
2023-04-20T07:47:39.538Z,100238.62
2023-04-20T07:50:41.935Z,100243.41
2023-04-20T07:53:45.382Z,100248.91
2023-04-20T07:56:48.579Z,100244.88
2023-04-20T07:59:52.364Z,100246.78
2023-04-20T08:02:56.235Z,100252.41
2023-04-20T08:06:00.946Z,100242.41
2023-04-20T08:09:04.399Z,100225.41
2023-04-20T08:12:08.316Z,100232.97
2023-04-20T08:15:12.554Z,100228.34
2023-04-20T08:18:16.452Z,100225.00
2023-04-20T08:21:19.836Z,100231.09
2023-04-20T08:24:23.863Z,100221.59
2023-04-20T08:27:30.295Z,100216.81
2023-04-20T08:30:34.815Z,100221.25
2023-04-20T08:33:39.558Z,100220.34
2023-04-20T08:36:42.364Z,100216.16
2023-04-20T08:39:45.252Z,100222.84
2023-04-20T08:42:48.060Z,100225.81
2023-04-20T08:45:52.362Z,100221.62
2023-04-20T08:48:59.961Z,100212.69
2023-04-20T08:52:03.396Z,100213.84
2023-04-20T08:55:08.059Z,100213.44
2023-04-20T08:58:11.372Z,100221.88
2023-04-20T09:01:17.620Z,100217.97
2023-04-20T09:04:24.913Z,100222.88
2023-04-20T09:07:28.221Z,100219.66
2023-04-20T09:10:40.194Z,100217.59
2023-04-20T09:13:44.478Z,100217.88
2023-04-20T09:16:54.906Z,100217.09
2023-04-20T09:19:57.824Z,100216.66
2023-04-20T09:23:19.929Z,100215.84
2023-04-20T09:26:23.679Z,100213.63
2023-04-20T09:29:26.841Z,100215.44
2023-04-20T09:32:30.201Z,100213.47
2023-04-20T09:35:32.789Z,100211.78
2023-04-20T09:38:37.181Z,100206.69
2023-04-20T09:41:40.930Z,100202.22
2023-04-20T09:44:44.583Z,100214.31
2023-04-20T09:47:48.421Z,100202.03
2023-04-20T09:50:51.903Z,100206.84
2023-04-20T09:54:05.448Z,100207.69
2023-04-20T09:57:08.637Z,100200.41
2023-04-20T10:00:13.453Z,100206.16
2023-04-20T10:03:19.317Z,100204.34
2023-04-20T10:06:23.315Z,100204.09
2023-04-20T10:09:26.475Z,100201.00
2023-04-20T10:12:29.323Z,100189.34
2023-04-20T10:15:39.874Z,100192.63
2023-04-20T10:18:43.772Z,100190.47
2023-04-20T10:21:48.130Z,100185.47
2023-04-20T10:24:53.889Z,100179.47
2023-04-20T10:28:09.988Z,100175.72
2023-04-20T10:31:14.691Z,100185.09
2023-04-20T10:34:18.206Z,100178.50
2023-04-20T10:37:21.596Z,100180.25
2023-04-20T10:40:28.520Z,100180.00
2023-04-20T10:43:32.724Z,100177.22
2023-04-20T10:46:36.045Z,100176.13
2023-04-20T10:49:38.928Z,100168.50
2023-04-20T10:52:43.755Z,100160.75
2023-04-20T10:55:47.249Z,100160.75
2023-04-20T10:58:51.162Z,100164.84
2023-04-20T11:01:56.161Z,100167.03
2023-04-20T11:05:02.206Z,100163.59
2023-04-20T11:08:05.464Z,100159.19
2023-04-20T11:11:32.704Z,100147.03
2023-04-20T11:14:39.198Z,100151.44
2023-04-20T11:17:42.018Z,100147.78
2023-04-20T11:20:55.284Z,100149.44
2023-04-20T11:23:58.758Z,100139.75
2023-04-20T11:27:02.958Z,100139.88
2023-04-20T11:30:08.386Z,100138.69
2023-04-20T11:33:11.238Z,100139.91
2023-04-20T11:36:21.755Z,100144.50
2023-04-20T11:39:25.763Z,100132.19
2023-04-20T11:42:29.464Z,100140.84
2023-04-20T11:45:36.044Z,100139.22
2023-04-20T11:48:42.311Z,100129.03
2023-04-20T11:51:45.216Z,100137.06
2023-04-20T11:54:48.170Z,100128.75
2023-04-20T11:57:52.085Z,100134.00
2023-04-20T12:00:55.084Z,100125.16
2023-04-20T12:03:58.593Z,100130.97
2023-04-20T12:07:04.674Z,100134.09
2023-04-20T12:10:09.783Z,100130.75
2023-04-20T12:13:12.634Z,100127.88
2023-04-20T12:16:14.857Z,100129.66
2023-04-20T12:19:20.887Z,100119.66
2023-04-20T12:22:24.640Z,100115.00
2023-04-20T12:25:28.531Z,100116.03
2023-04-20T12:28:32.556Z,100119.75
2023-04-20T12:31:38.138Z,100117.12
2023-04-20T12:34:42.327Z,100112.03
2023-04-20T12:38:04.047Z,100120.22
2023-04-20T12:41:07.766Z,100108.94
2023-04-20T12:44:16.856Z,100111.16
2023-04-20T12:51:00.251Z,100101.53
2023-04-20T12:54:08.302Z,100100.97
2023-04-20T12:57:15.462Z,100110.06
2023-04-20T13:00:19.700Z,100096.47
2023-04-20T13:03:22.881Z,100093.16
2023-04-20T13:06:27.024Z,100098.75
2023-04-20T13:09:29.879Z,100085.34
2023-04-20T13:12:34.262Z,100079.97
2023-04-20T13:15:39.781Z,100080.28
2023-04-20T13:18:42.861Z,100074.81
2023-04-20T13:21:46.144Z,100080.00
2023-04-20T13:24:49.246Z,100072.81
2023-04-20T13:27:54.285Z,100075.66
2023-04-20T13:31:00.753Z,100077.44
2023-04-20T13:34:04.563Z,100077.63
2023-04-20T13:37:08.604Z,100070.47
2023-04-20T13:40:13.647Z,100080.56
2023-04-20T13:43:19.390Z,100079.25
2023-04-20T13:46:24.370Z,100076.94
2023-04-20T13:49:28.831Z,100074.34
2023-04-20T13:52:33.269Z,100071.78
2023-04-20T13:55:37.393Z,100069.06
2023-04-20T13:58:50.924Z,100060.13
2023-04-20T14:01:53.710Z,100062.81
2023-04-20T14:04:56.966Z,100053.84
2023-04-20T14:08:01.931Z,100050.13
2023-04-20T14:11:06.285Z,100045.53
2023-04-20T14:14:09.251Z,100057.09
2023-04-20T14:17:13.365Z,100045.62
2023-04-20T14:20:16.891Z,100053.44
2023-04-20T14:23:22.834Z,100044.53
2023-04-20T14:26:25.627Z,100044.72
2023-04-20T14:29:29.453Z,100035.75
2023-04-20T14:32:33.110Z,100033.47
2023-04-20T14:35:36.575Z,100029.34
2023-04-20T14:38:41.373Z,100029.09
2023-04-20T14:41:45.906Z,100031.09
2023-04-20T14:44:53.747Z,100020.34
2023-04-20T14:47:57.497Z,100026.25
2023-04-20T14:51:01.335Z,100032.16
2023-04-20T14:54:04.237Z,100023.97
2023-04-20T14:57:11.919Z,100023.22
2023-04-20T15:00:16.138Z,100020.50
2023-04-20T15:03:20.085Z,100020.53
2023-04-20T15:06:26.727Z,100017.50
2023-04-20T15:09:30.045Z,100019.75
2023-04-20T15:12:34.676Z,100011.41
2023-04-20T15:15:48.299Z,100019.91
2023-04-20T15:18:56.603Z,100021.22
2023-04-20T15:22:00.525Z,100019.72
2023-04-20T15:25:04.047Z,100018.62
2023-04-20T15:28:07.943Z,100017.06
2023-04-20T15:31:12.265Z,100015.94
2023-04-20T15:34:18.504Z,100016.66
2023-04-20T15:37:23.275Z,100024.41
2023-04-20T15:40:27.772Z,100021.00
2023-04-20T15:43:32.303Z,100020.66
2023-04-20T15:46:35.960Z,100019.22
2023-04-20T15:49:41.209Z,100017.56
2023-04-20T15:52:44.391Z,100017.28
2023-04-20T15:55:47.565Z,100024.78
2023-04-20T15:58:51.904Z,100009.31
2023-04-20T16:01:54.929Z,100026.34
2023-04-20T16:04:58.399Z,100027.22
2023-04-20T16:08:02.066Z,100035.66
2023-04-20T16:11:05.794Z,100035.56
2023-04-20T16:14:08.773Z,100030.53
2023-04-20T16:17:11.810Z,100032.50
2023-04-20T16:20:15.161Z,100025.47
2023-04-20T16:23:19.129Z,100023.19
2023-04-20T16:26:22.488Z,100026.00
2023-04-20T16:29:25.598Z,100025.31
2023-04-20T16:32:28.842Z,100017.56
2023-04-20T16:35:32.098Z,100027.47
2023-04-20T16:38:35.719Z,100031.09
2023-04-20T16:41:38.182Z,100028.44
2023-04-20T16:44:41.914Z,100028.97
2023-04-20T16:47:44.721Z,100034.19
2023-04-20T16:50:47.566Z,100035.03
2023-04-20T16:53:50.524Z,100039.81
2023-04-20T16:56:53.536Z,100036.81
2023-04-20T16:59:56.447Z,100036.13
2023-04-20T17:03:01.701Z,100041.34
2023-04-20T17:06:08.973Z,100044.16
2023-04-20T17:09:13.275Z,100045.97
2023-04-20T17:12:16.836Z,100052.03
2023-04-20T17:15:19.503Z,100063.84
2023-04-20T17:18:22.358Z,100059.22
2023-04-20T17:21:26.370Z,100061.59
2023-04-20T17:24:29.980Z,100072.00
2023-04-20T17:27:33.193Z,100066.50
2023-04-20T17:30:36.393Z,100070.91
2023-04-20T17:33:39.263Z,100068.38
2023-04-20T17:36:42.861Z,100081.19
2023-04-20T17:39:46.486Z,100079.84
2023-04-20T17:42:49.670Z,100074.59
2023-04-20T17:45:52.390Z,100079.94
2023-04-20T17:48:55.040Z,100076.62
2023-04-20T17:51:57.544Z,100079.75
2023-04-20T17:55:03.282Z,100085.97
2023-04-20T17:58:06.154Z,100082.00
2023-04-20T18:01:08.639Z,100081.59
2023-04-20T18:04:11.559Z,100088.37
2023-04-20T18:07:17.463Z,100089.44
2023-04-20T18:10:20.112Z,100094.84
2023-04-20T18:13:22.774Z,100104.84
2023-04-20T18:16:26.065Z,100107.63
2023-04-20T18:19:28.961Z,100104.31
2023-04-20T18:22:31.770Z,100103.78
2023-04-20T18:25:34.283Z,100110.19
2023-04-20T18:28:37.508Z,100116.56
2023-04-20T18:31:40.082Z,100126.50
2023-04-20T18:34:43.075Z,100131.63
2023-04-20T18:37:45.961Z,100137.72
2023-04-20T18:40:48.827Z,100139.38
2023-04-20T18:43:54.870Z,100142.53
2023-04-20T18:46:59.223Z,100137.41
2023-04-20T18:50:02.570Z,100144.47
2023-04-20T18:53:05.732Z,100151.19
2023-04-20T18:56:10.144Z,100156.97
2023-04-20T18:59:13.087Z,100160.88
2023-04-20T19:02:16.038Z,100158.56
2023-04-20T19:05:19.344Z,100146.66
2023-04-20T19:08:23.274Z,100151.25
2023-04-20T19:11:26.164Z,100155.69
2023-04-20T19:14:29.253Z,100156.16
2023-04-20T19:17:32.125Z,100162.81
2023-04-20T19:20:36.547Z,100161.06
2023-04-20T19:23:39.157Z,100164.12
2023-04-20T19:26:41.660Z,100152.66
2023-04-20T19:29:44.531Z,100158.75
2023-04-20T19:32:48.250Z,100159.75
2023-04-20T19:35:53.969Z,100159.37
2023-04-20T19:38:56.749Z,100161.91
2023-04-20T19:41:59.664Z,100172.31
2023-04-20T19:45:03.235Z,100164.56
2023-04-20T19:48:06.416Z,100173.16
2023-04-20T19:51:09.567Z,100171.63
2023-04-20T19:54:13.409Z,100166.97
2023-04-20T19:57:16.372Z,100164.47
2023-04-20T20:00:18.791Z,100177.38
2023-04-20T20:03:22.686Z,100173.66
2023-04-20T20:06:25.697Z,100180.41
2023-04-20T20:09:28.970Z,100182.22
2023-04-20T20:12:31.263Z,100178.78
2023-04-20T20:15:33.964Z,100194.41
2023-04-20T20:18:37.364Z,100185.44
2023-04-20T20:21:40.154Z,100185.31
2023-04-20T20:24:45.066Z,100187.09
2023-04-20T20:27:47.629Z,100187.81
2023-04-20T20:30:50.108Z,100186.72
2023-04-20T20:33:53.990Z,100194.72
2023-04-20T20:36:56.784Z,100189.75
2023-04-20T20:39:59.289Z,100190.59
2023-04-20T20:43:02.060Z,100199.00
2023-04-20T20:46:04.697Z,100187.53
2023-04-20T20:49:07.652Z,100193.31
2023-04-20T20:52:10.421Z,100190.00
2023-04-20T20:55:13.096Z,100205.59
2023-04-20T20:58:15.699Z,100198.41
2023-04-20T21:01:18.374Z,100197.97
2023-04-20T21:04:21.184Z,100206.22
2023-04-20T21:07:23.833Z,100201.50
2023-04-20T21:10:28.664Z,100202.87
2023-04-20T21:13:31.557Z,100202.44
2023-04-20T21:16:33.808Z,100201.03
2023-04-20T21:19:36.671Z,100204.34
2023-04-20T21:22:40.048Z,100203.03
2023-04-20T21:25:42.926Z,100207.28
2023-04-20T21:28:45.301Z,100205.19
2023-04-20T21:31:48.127Z,100202.69
2023-04-20T21:34:51.945Z,100198.81
2023-04-20T21:37:54.288Z,100203.50
2023-04-20T21:40:57.304Z,100203.75
2023-04-20T21:44:01.084Z,100207.31
2023-04-20T21:47:04.120Z,100203.34
2023-04-20T21:50:06.962Z,100200.59
2023-04-20T21:53:09.565Z,100206.56
2023-04-20T21:56:12.360Z,100215.50
2023-04-20T21:59:15.107Z,100211.09
2023-04-20T22:02:17.771Z,100213.81
2023-04-20T22:05:20.630Z,100207.75
2023-04-20T22:08:23.426Z,100212.19
2023-04-20T22:11:26.602Z,100217.75
2023-04-20T22:14:29.135Z,100216.91
2023-04-20T22:17:31.806Z,100213.97
2023-04-20T22:20:34.928Z,100212.81
2023-04-20T22:23:38.066Z,100207.28
2023-04-20T22:26:40.588Z,100199.91
2023-04-20T22:29:43.071Z,100203.06
2023-04-20T22:32:46.319Z,100198.09
2023-04-20T22:35:49.507Z,100207.03
2023-04-20T22:38:52.695Z,100198.72
2023-04-20T22:41:55.442Z,100201.06
2023-04-20T22:44:58.324Z,100203.25
2023-04-20T22:48:02.223Z,100194.69
2023-04-20T22:51:04.886Z,100192.91
2023-04-20T22:54:07.611Z,100199.34
2023-04-20T22:57:10.241Z,100193.81
2023-04-20T23:00:14.672Z,100197.38
2023-04-20T23:03:17.613Z,100203.47
2023-04-20T23:06:22.757Z,100198.06
2023-04-20T23:09:25.701Z,100185.31
2023-04-20T23:12:29.976Z,100193.78
2023-04-20T23:15:32.716Z,100197.22
2023-04-20T23:18:35.492Z,100196.41
2023-04-20T23:21:38.782Z,100191.03
2023-04-20T23:24:41.627Z,100186.31
2023-04-20T23:27:44.639Z,100191.34
2023-04-20T23:30:47.274Z,100188.97
2023-04-20T23:33:50.294Z,100178.72
2023-04-20T23:36:54.446Z,100181.28
2023-04-20T23:39:57.545Z,100194.00
2023-04-20T23:43:00.118Z,100191.75
2023-04-20T23:46:02.877Z,100190.66
2023-04-20T23:49:06.919Z,100192.59
2023-04-20T23:52:10.342Z,100187.72
2023-04-20T23:55:13.199Z,100191.06
2023-04-20T23:58:16.310Z,100195.59
